Time;durP1;ratioP1;P1;durP2;ratioP2;P2;SDS_P1;SDS_P2;PMS_P1;PMS_P2;Temp;Humidity;BMP_temperature;BMP_pressure;BME280_temperature;BME280_humidity;BME280_pressure;Samples;Min_cycle;Max_cycle;Signal;HPM_P1;HPM_P2
2023/06/09 00:02:18;;;;;;;4.72;1.88;;;;;;;17.24;100.00;100216.09;4881730;29;20235;-85
2023/06/09 00:04:46;;;;;;;4.95;2.22;;;;;;;17.12;100.00;100216.38;4885019;29;20296;-81
2023/06/09 00:07:15;;;;;;;5.15;2.03;;;;;;;16.97;100.00;100230.03;4889760;29;20252;-79
2023/06/09 00:09:46;;;;;;;4.30;1.77;;;16.70;99.90;;;16.97;100.00;100245.19;4879153;29;20252;-80
2023/06/09 00:12:14;;;;;;;4.85;2.00;;;;;;;17.03;100.00;100258.44;4879569;29;20247;-81
2023/06/09 00:14:41;;;;;;;4.63;1.83;;;;;;;16.85;100.00;100273.00;4880437;29;20240;-80
2023/06/09 00:17:09;;;;;;;5.65;2.28;;;;;;;16.88;100.00;100279.16;4881208;29;20260;-80
2023/06/09 00:19:37;;;;;;;4.10;1.77;;;;;;;16.98;100.00;100282.56;4879780;29;20240;-81
2023/06/09 00:22:05;;;;;;;6.50;2.63;;;;;;;16.93;100.00;100287.09;4861691;29;20240;-80
2023/06/09 00:24:32;;;;;;;7.05;2.85;;;;;;;16.84;100.00;100296.16;4885229;29;20236;-81
2023/06/09 00:27:00;;;;;;;6.63;2.50;;;;;;;17.02;100.00;100299.41;4878878;29;20373;-80
2023/06/09 00:29:27;;;;;;;3.85;1.60;;;;;;;16.93;100.00;100297.78;4877747;29;20690;-80
2023/06/09 00:31:55;;;;;;;5.63;2.20;;;;;;;17.01;100.00;100297.66;4877751;29;20635;-81
2023/06/09 00:34:22;;;;;;;6.00;2.40;;;;;;;17.04;100.00;100292.25;4882965;29;20243;-80
2023/06/09 00:36:49;;;;;;;5.28;2.05;;;;;;;16.99;100.00;100280.78;4887537;29;20235;-80
2023/06/09 00:39:17;;;;;;;4.63;1.80;;;;;;;16.93;100.00;100277.31;4882115;29;20231;-80
2023/06/09 00:41:44;;;;;;;5.43;1.95;;;;;;;16.92;100.00;100272.88;4880157;29;20243;-81
2023/06/09 00:44:12;;;;;;;5.40;2.00;;;;;;;16.95;100.00;100282.63;4879090;29;20248;-81
2023/06/09 00:46:41;;;;;;;4.28;1.73;;;16.60;99.90;;;16.87;100.00;100285.41;4878000;29;20279;-81
2023/06/09 00:49:09;;;;;;;5.55;2.17;;;;;;;16.84;100.00;100272.09;4883308;29;20239;-80
2023/06/09 00:51:37;;;;;;;4.10;1.65;;;16.50;99.90;;;16.91;100.00;100283.59;4878828;29;20229;-81
2023/06/09 00:54:05;;;;;;;4.95;2.25;;;16.50;99.90;;;16.87;100.00;100276.50;4878746;29;20240;-80
2023/06/09 00:56:34;;;;;;;3.75;1.60;;;;;;;16.83;100.00;100275.69;4895093;29;20244;-81
2023/06/09 00:59:02;;;;;;;5.93;2.35;;;;;;;16.81;100.00;100276.63;4878572;29;20240;-81
2023/06/09 01:01:32;;;;;;;6.28;2.55;;;;;;;16.81;100.00;100285.53;4879005;29;20713;-80
2023/06/09 01:04:00;;;;;;;5.20;2.15;;;;;;;16.88;100.00;100286.28;4879023;29;20720;-80
2023/06/09 01:07:03;;;;;;;5.25;2.05;;;16.50;99.90;;;16.82;100.00;100284.59;4879112;29;20244;-80
2023/06/09 01:09:46;;;;;;;6.15;2.17;;;16.40;99.90;;;16.75;100.00;100285.63;4875974;29;20247;-79
2023/06/09 01:12:31;;;;;;;5.05;1.90;;;16.40;99.90;;;16.76;100.00;100300.75;4877305;29;20620;-82
2023/06/09 01:15:33;;;;;;;5.43;2.10;;;16.30;99.90;;;16.64;100.00;100304.50;4874473;29;20244;-82
2023/06/09 01:18:05;;;;;;;5.32;2.08;;;16.20;99.90;;;16.54;100.00;100291.34;4876966;29;20247;-82
2023/06/09 01:20:36;;;;;;;5.20;2.03;;;;;;;16.53;100.00;100300.25;4878236;29;20267;-82
2023/06/09 01:23:25;;;;;;;4.68;1.90;;;16.10;99.90;;;16.43;100.00;100287.97;4877416;29;20708;-83
2023/06/09 01:25:53;;;;;;;5.22;1.98;;;;;;;16.54;100.00;100286.00;4888899;29;20247;-82
2023/06/09 01:28:23;;;;;;;7.32;2.63;;;;;;;16.53;100.00;100294.91;4875139;29;20259;-83
2023/06/09 01:30:52;;;;;;;6.70;2.45;;;16.20;99.90;;;16.49;100.00;100299.41;4891814;29;20255;-82
2023/06/09 01:33:25;;;;;;;36.75;7.18;;;16.10;99.90;;;16.45;100.00;100299.50;4902541;23;20239;-83
2023/06/09 01:35:53;;;;;;;9.68;2.90;;;16.10;99.90;;;16.45;100.00;100311.06;4862539;29;20241;-84
2023/06/09 01:38:22;;;;;;;8.60;2.67;;;16.00;99.90;;;16.36;100.00;100305.00;4867097;29;20301;-82
2023/06/09 01:40:50;;;;;;;6.57;2.17;;;;;;;16.36;100.00;100327.22;4862158;29;20244;-81
2023/06/09 01:43:18;;;;;;;9.38;3.00;;;;;;;16.33;100.00;100341.50;4866156;29;20248;-82
2023/06/09 01:45:45;;;;;;;9.60;3.05;;;;;;;16.40;100.00;100342.28;4857775;29;20244;-83
2023/06/09 01:48:43;;;;;;;11.32;3.33;;;16.00;99.90;;;16.46;100.00;100352.84;4857829;29;20259;-80
2023/06/09 01:51:24;;;;;;;5.93;1.90;;;16.00;99.90;;;16.36;100.00;100359.25;4865908;29;20263;-80
2023/06/09 01:54:07;;;;;;;11.82;3.33;;;16.00;99.90;;;16.36;100.00;100358.38;4858987;29;20245;-81
2023/06/09 01:56:56;;;;;;;11.60;3.33;;;16.00;99.90;;;16.39;100.00;100372.53;4851999;29;20241;-80
2023/06/09 01:59:29;;;;;;;9.63;2.92;;;16.00;99.90;;;16.37;100.00;100376.16;4841902;29;20245;-79
2023/06/09 02:01:59;;;;;;;12.65;3.67;;;14.70;99.90;;;16.35;100.00;100391.28;4851745;29;20252;-81
2023/06/09 02:04:28;;;;;;;13.52;3.97;;;16.00;99.90;;;16.34;100.00;100395.75;4859647;29;20773;-79
2023/06/09 02:06:56;;;;;;;10.60;3.08;;;16.00;99.90;;;16.25;100.00;100407.44;4868497;29;20247;-79
2023/06/09 02:09:24;;;;;;;12.02;3.60;;;;;;;16.22;100.00;100415.50;4856802;29;20257;-79
2023/06/09 02:11:52;;;;;;;8.43;2.55;;;;;;;16.10;100.00;100422.78;4862140;29;20237;-79
2023/06/09 02:14:20;;;;;;;12.38;3.67;;;;;;;16.11;100.00;100433.44;4858763;29;20308;-79
2023/06/09 02:16:48;;;;;;;9.10;2.85;;;;;;;16.14;100.00;100438.72;4860140;29;20248;-79
2023/06/09 02:19:16;;;;;;;11.48;3.40;;;15.80;99.90;;;16.18;100.00;100439.56;4865185;29;20240;-79
2023/06/09 02:21:44;;;;;;;7.72;2.47;;;;;;;16.11;100.00;100452.13;4869648;29;20241;-81
2023/06/09 02:24:11;;;;;;;8.60;2.78;;;;;;;16.07;100.00;100453.06;4857746;29;20248;-80
2023/06/09 02:26:39;;;;;;;7.88;2.65;;;;;;;16.11;100.00;100452.13;4858790;29;20248;-80
2023/06/09 02:29:07;;;;;;;12.38;4.07;;;;;;;16.10;100.00;100450.34;4856446;29;20324;-81
2023/06/09 02:31:34;;;;;;;9.68;3.33;;;;;;;16.11;100.00;100464.56;4868684;29;20272;-80
2023/06/09 02:34:02;;;;;;;8.90;2.80;;;;;;;16.07;100.00;100471.72;4861458;29;20305;-79
2023/06/09 02:36:29;;;;;;;9.70;3.13;;;;;;;16.10;100.00;100474.38;4866834;29;20242;-79
2023/06/09 02:38:57;;;;;;;6.78;2.20;;;;;;;16.05;100.00;100470.88;4858005;29;20257;-79
2023/06/09 02:41:26;;;;;;;7.50;2.60;;;;;;;16.07;100.00;100473.50;4856413;29;20244;-79
2023/06/09 02:43:55;;;;;;;9.30;2.88;;;15.60;99.90;;;15.98;100.00;100469.19;4861622;29;20659;-79
2023/06/09 02:46:22;;;;;;;8.73;2.85;;;;;;;16.00;100.00;100481.59;4855107;29;20249;-79
2023/06/09 02:48:50;;;;;;;8.65;2.72;;;;;;;15.98;100.00;100478.06;4859051;29;20237;-78
2023/06/09 02:51:17;;;;;;;7.10;2.33;;;;;;;16.09;100.00;100482.38;4859165;29;20251;-79
2023/06/09 02:53:45;;;;;;;6.93;2.28;;;;;;;16.01;100.00;100485.16;4858853;29;20249;-80
2023/06/09 02:56:13;;;;;;;7.90;2.65;;;;;;;16.05;100.00;100491.31;4858468;29;20249;-79
2023/06/09 02:58:40;;;;;;;6.55;2.28;;;;;;;16.07;100.00;100501.06;4856138;29;20336;-79
2023/06/09 03:01:08;;;;;;;9.70;3.17;;;;;;;16.08;100.00;100499.28;4865299;29;20245;-78
2023/06/09 03:03:38;;;;;;;5.63;1.80;;;;;;;16.12;100.00;100487.69;4857134;29;20336;-79
2023/06/09 03:06:07;;;;;;;7.30;2.38;;;15.80;99.90;;;16.11;100.00;100497.47;4857384;29;20682;-78
2023/06/09 03:08:34;;;;;;;10.27;3.10;;;;;;;16.08;100.00;100489.50;4858034;29;20309;-78
2023/06/09 03:11:02;;;;;;;10.27;3.13;;;;;;;16.05;100.00;100489.53;4857705;29;20236;-78
2023/06/09 03:13:29;;;;;;;8.05;2.70;;;;;;;16.07;100.00;100495.75;4861350;29;20374;-79
2023/06/09 03:15:57;;;;;;;8.45;2.80;;;;;;;15.95;100.00;100501.22;4862134;29;20295;-80
2023/06/09 03:18:27;;;;;;;8.65;2.85;;;;;;;15.97;100.00;100504.75;4862758;29;21174;-80
2023/06/09 03:20:55;;;;;;;8.82;2.72;;;;;;;15.83;100.00;100510.25;4862840;29;20255;-80
2023/06/09 03:23:23;;;;;;;7.90;2.75;;;;;;;15.87;100.00;100513.75;4867636;29;20240;-79
2023/06/09 03:25:51;;;;;;;7.32;2.38;;;;;;;15.79;100.00;100523.63;4860243;29;20252;-80
2023/06/09 03:28:19;;;;;;;6.90;2.22;;;;;;;15.77;100.00;100520.09;4860424;29;20237;-81
2023/06/09 03:30:46;;;;;;;10.75;3.40;;;;;;;15.71;100.00;100526.38;4870569;29;20253;-86
2023/06/09 03:33:15;;;;;;;9.10;3.10;;;;;;;15.69;100.00;100528.19;4862801;29;20275;-81
2023/06/09 03:35:42;;;;;;;8.52;2.97;;;;;;;15.68;100.00;100542.41;4858003;29;20236;-81
2023/06/09 03:38:10;;;;;;;12.65;4.55;;;;;;;15.59;100.00;100554.00;4861185;29;20241;-82
2023/06/09 03:40:37;;;;;;;8.32;3.10;;;;;;;15.62;100.00;100555.81;4860168;29;20241;-85
2023/06/09 03:43:07;;;;;;;9.95;3.13;;;;;;;15.62;100.00;100559.34;4862933;29;20244;-80
2023/06/09 03:45:34;;;;;;;8.93;3.00;;;;;;;15.63;100.00;100571.78;4856609;29;20281;-79
2023/06/09 03:48:02;;;;;;;10.27;3.33;;;;;;;15.59;100.00;100569.13;4858472;29;20248;-83
2023/06/09 03:50:30;;;;;;;11.63;3.65;;;;;;;15.54;100.00;100579.78;4856500;29;20244;-80
2023/06/09 03:52:58;;;;;;;8.45;2.70;;;;;;;15.54;100.00;100587.78;4868025;29;20240;-79
2023/06/09 03:55:26;;;;;;;7.60;2.45;;;;;;;15.48;100.00;100577.19;4859847;29;20253;-79
2023/06/09 03:57:53;;;;;;;9.43;3.20;;;;;;;15.43;100.00;100573.69;4859176;29;20244;-79
2023/06/09 04:00:21;;;;;;;7.82;2.78;;;;;;;15.41;100.00;100569.25;4857005;29;20237;-79
2023/06/09 04:02:49;;;;;;;10.43;3.30;;;;;;;15.38;100.00;100579.03;4854159;29;20242;-80
2023/06/09 04:05:17;;;;;;;7.88;2.55;;;;;;;15.42;100.00;100571.91;4854339;29;20251;-80
2023/06/09 04:07:45;;;;;;;8.10;2.65;;;;;;;15.47;100.00;100567.41;4858606;29;20241;-79
2023/06/09 04:10:12;;;;;;;8.07;2.83;;;;;;;15.53;100.00;100574.47;4860540;29;20237;-80
2023/06/09 04:12:42;;;;;;;8.15;2.58;;;15.20;99.90;;;15.48;100.00;100558.53;4861304;29;20241;-81
2023/06/09 04:15:10;;;;;;;8.05;3.08;;;;;;;15.57;100.00;100570.88;4856769;29;20248;-82
2023/06/09 04:17:37;;;;;;;7.55;2.47;;;;;;;15.60;100.00;100582.47;4859982;29;20330;-80
2023/06/09 04:20:09;;;;;;;16.83;5.20;;;15.30;99.90;;;15.56;100.00;100577.13;4855769;29;20329;-80
2023/06/09 04:22:37;;;;;;;7.95;2.60;;;;;;;15.54;100.00;100577.13;4858753;29;20757;-80
2023/06/09 04:25:05;;;;;;;12.73;3.65;;;;;;;15.63;100.00;100579.78;4857485;29;20240;-81
2023/06/09 04:27:32;;;;;;;7.43;2.47;;;;;;;15.73;100.00;100588.56;4856764;29;20249;-83
2023/06/09 04:30:04;;;;;;;12.38;3.83;;;;;;;15.82;100.00;100576.94;4855372;29;20233;-80
2023/06/09 04:32:33;;;;;;;6.70;2.20;;;;;;;15.84;100.00;100569.81;4855262;29;20260;-80
2023/06/09 04:35:02;;;;;;;8.90;2.75;;;15.50;99.90;;;15.80;100.00;100574.28;4859889;29;20284;-79
2023/06/09 04:37:30;;;;;;;8.77;2.85;;;;;;;15.87;100.00;100572.44;4858214;29;20239;-80
2023/06/09 04:39:58;;;;;;;9.88;3.20;;;;;;;15.87;100.00;100584.00;4857981;29;20232;-79
2023/06/09 04:42:25;;;;;;;11.30;3.47;;;;;;;15.89;100.00;100583.97;4857236;29;20649;-80
2023/06/09 04:44:53;;;;;;;9.40;2.63;;;;;;;16.00;100.00;100600.75;4859978;29;20307;-79
2023/06/09 04:47:24;;;;;;;11.77;3.67;;;;;;;16.03;100.00;100600.72;4862453;29;20240;-80
2023/06/09 04:49:53;;;;;;;10.77;2.97;;;;;;;16.06;100.00;100608.69;4858313;29;20261;-79
2023/06/09 04:52:21;;;;;;;9.93;2.90;;;;;;;16.15;100.00;100618.38;4855125;29;20263;-79
2023/06/09 04:54:51;;;;;;;14.82;4.78;;;;;;;16.22;100.00;100612.06;4857760;29;20244;-80
2023/06/09 04:57:19;;;;;;;11.23;3.40;;;;;;;16.27;100.00;100626.25;4856819;29;20245;-80
2023/06/09 04:59:46;;;;;;;13.52;4.25;;;;;;;16.35;100.00;100628.81;4865674;29;20240;-80
2023/06/09 05:02:14;;;;;;;10.15;3.13;;;;;;;16.40;100.00;100633.22;4857968;29;20283;-80
2023/06/09 05:04:41;;;;;;;15.50;4.45;;;;;;;16.42;100.00;100623.41;4859102;29;20241;-79
2023/06/09 05:07:09;;;;;;;8.77;2.88;;;;;;;16.54;100.00;100619.69;4858654;29;20281;-79
2023/06/09 05:09:37;;;;;;;9.02;2.80;;;;;;;16.55;100.00;100619.69;4860334;29;20294;-79
2023/06/09 05:12:05;;;;;;;7.82;2.50;;;;;;;16.69;100.00;100614.19;4859259;29;20241;-80
2023/06/09 05:14:32;;;;;;;11.75;4.07;;;;;;;16.70;100.00;100610.63;4864537;29;20241;-80
2023/06/09 05:17:00;;;;;;;9.45;3.25;;;;;;;16.72;100.00;100599.91;4863980;29;20233;-82
2023/06/09 05:19:27;;;;;;;11.43;3.70;;;;;;;16.82;100.00;100605.13;4860062;29;20233;-83
2023/06/09 05:21:56;;;;;;;15.02;4.10;;;;;;;16.87;100.00;100583.69;4858521;29;20266;-84
2023/06/09 05:24:24;;;;;;;12.20;3.92;;;;;;;16.99;100.00;100580.88;4861584;29;20268;-83
2023/06/09 05:26:52;;;;;;;9.30;3.30;;;;;;;17.06;100.00;100570.97;4863853;29;20331;-83
2023/06/09 05:29:19;;;;;;;7.32;2.28;;;;;;;17.14;100.00;100561.03;4856423;29;20236;-83
2023/06/09 05:31:47;;;;;;;12.93;4.43;;;;;;;17.30;100.00;100567.03;4856030;29;20240;-82
2023/06/09 05:34:15;;;;;;;6.20;2.17;;;;;;;17.28;100.00;100553.69;4858199;29;20251;-82
2023/06/09 05:36:42;;;;;;;12.85;4.30;;;;;;;17.24;100.00;100535.94;4856201;29;20253;-83
2023/06/09 05:39:10;;;;;;;8.13;2.67;;;;;;;17.25;100.00;100543.03;4851233;29;20237;-83
2023/06/09 05:41:39;;;;;;;8.27;2.80;;;;;;;17.41;100.00;100535.66;4856288;29;20285;-83
2023/06/09 05:44:06;;;;;;;9.43;3.08;;;;;;;17.49;100.00;100534.59;4855862;29;20249;-81
2023/06/09 05:46:38;;;;;;;8.75;3.13;;;17.20;99.90;;;17.58;100.00;100525.53;4856323;29;20332;-80
2023/06/09 05:49:06;;;;;;;7.63;2.75;;;;;;;17.73;100.00;100519.06;4861666;29;20604;-82
2023/06/09 05:51:34;;;;;;;5.63;2.00;;;;;;;17.84;100.00;100525.06;4856920;29;20244;-82
2023/06/09 05:54:01;;;;;;;7.10;2.85;;;;;;;17.87;100.00;100515.19;4857051;29;20249;-80
2023/06/09 05:56:29;;;;;;;5.47;2.03;;;;;;;17.70;100.00;100505.72;4872279;29;20273;-84
2023/06/09 05:59:03;;;;;;;7.10;2.63;;;;;;;17.83;100.00;100502.78;4861475;29;20241;-84
2023/06/09 06:01:31;;;;;;;7.25;2.65;;;17.60;99.90;;;18.01;100.00;100488.16;4853398;29;20672;-82
2023/06/09 06:03:59;;;;;;;8.55;2.95;;;17.70;99.90;;;18.18;100.00;100496.72;4856514;29;20233;-83
2023/06/09 06:06:27;;;;;;;5.97;2.17;;;;;;;18.36;100.00;100475.84;4849179;29;20245;-83
2023/06/09 06:08:54;;;;;;;8.98;3.05;;;;;;;18.27;100.00;100470.69;4860581;29;20236;-84
2023/06/09 06:11:22;;;;;;;7.82;2.92;;;;;;;18.46;100.00;100464.03;4857379;29;20248;-81
2023/06/09 06:13:49;;;;;;;5.35;2.08;;;;;;;18.58;100.00;100466.41;4857896;29;20241;-82
2023/06/09 06:16:17;;;;;;;13.80;4.93;;;;;;;18.41;100.00;100457.91;4852355;29;20248;-88
2023/06/09 06:18:44;;;;;;;14.00;5.10;;;;;;;18.60;100.00;100456.56;4853088;29;20285;-87
2023/06/09 06:21:12;;;;;;;8.93;3.13;;;;;;;18.61;100.00;100444.03;4853926;29;20232;-83
2023/06/09 06:23:39;;;;;;;8.57;3.42;;;;;;;18.87;100.00;100447.00;4853222;29;20243;-82
2023/06/09 06:26:07;;;;;;;13.57;4.90;;;;;;;18.80;100.00;100432.00;4847587;29;20256;-82
2023/06/09 06:28:34;;;;;;;6.57;2.35;;;;;;;18.96;100.00;100438.72;4855165;29;20241;-83
2023/06/09 06:31:05;;;;;;;12.00;3.95;;;;;;;19.29;100.00;100439.66;4854819;29;20240;-85
2023/06/09 06:33:34;;;;;;;10.25;3.55;;;;;;;19.32;100.00;100428.84;4859512;29;20249;-82
2023/06/09 06:36:02;;;;;;;12.05;4.28;;;;;;;19.42;100.00;100433.03;4846836;29;20247;-82
2023/06/09 06:38:30;;;;;;;7.60;2.78;;;;;;;19.35;100.00;100407.31;4853720;29;20237;-81
2023/06/09 06:40:58;;;;;;;6.75;2.75;;;;;;;19.45;100.00;100389.16;4854299;29;20257;-82
2023/06/09 06:43:25;;;;;;;8.55;2.78;;;;;;;19.74;100.00;100391.97;4871759;29;20241;-83
2023/06/09 06:45:53;;;;;;;7.60;2.83;;;;;;;19.79;100.00;100378.41;4855079;29;20244;-82
2023/06/09 06:48:21;;;;;;;7.00;2.65;;;;;;;20.08;100.00;100383.78;4865300;29;20737;-83
2023/06/09 06:50:48;;;;;;;9.05;3.42;;;;;;;20.33;100.00;100366.88;4855437;29;20630;-82
2023/06/09 06:53:16;;;;;;;9.38;4.45;;;;;;;20.50;100.00;100345.75;4856859;29;20240;-82
2023/06/09 06:55:43;;;;;;;6.53;2.33;;;;;;;20.45;100.00;100327.13;4856882;29;20249;-81
2023/06/09 06:58:11;;;;;;;11.05;3.70;;;;;;;20.51;100.00;100323.34;4857156;29;20244;-82
2023/06/09 07:00:39;;;;;;;9.68;3.53;;;;;;;20.61;100.00;100326.59;4853121;29;20244;-82
2023/06/09 07:03:09;;;;;;;9.40;3.08;;;;;;;20.81;100.00;100310.72;4849517;29;20247;-82
2023/06/09 07:05:36;;;;;;;9.85;3.55;;;;;;;20.61;100.00;100254.06;4849928;29;20253;-85
2023/06/09 07:08:04;;;;;;;9.30;3.00;;;;;;;21.14;100.00;100270.09;4852792;29;20249;-83
2023/06/09 07:10:31;;;;;;;9.25;3.33;;;;;;;21.21;100.00;100250.09;4849465;29;20275;-82
2023/06/09 07:13:00;;;;;;;8.63;3.00;;;;;;;21.34;100.00;100220.03;4853162;29;20240;-81
2023/06/09 07:15:27;;;;;;;8.27;3.25;;;;;;;21.54;100.00;100199.53;4853959;29;20252;-79
2023/06/09 07:17:55;;;;;;;7.88;2.58;;;;;;;21.22;100.00;100160.44;4856164;29;20380;-82
2023/06/09 07:20:23;;;;;;;9.60;3.13;;;;;;;21.70;100.00;100188.09;4868561;29;20236;-80
2023/06/09 07:22:52;;;;;;;7.90;2.78;;;;;;;21.65;100.00;100157.81;4854505;29;20252;-79
2023/06/09 07:25:20;;;;;;;9.68;3.20;;;;;;;21.97;100.00;100163.69;4851523;29;20243;-80
2023/06/09 07:27:47;;;;;;;7.35;2.60;;;;;;;21.39;100.00;100048.56;4854144;29;20738;-78
2023/06/09 07:30:15;;;;;;;8.15;2.78;;;;;;;21.60;100.00;100079.09;4849497;29;20580;-78
2023/06/09 07:32:43;;;;;;;6.45;2.25;;;;;;;21.76;100.00;100087.38;4851124;29;20243;-80
2023/06/09 07:35:19;;;;;;;6.03;2.05;;;21.70;99.90;;;22.33;100.00;100127.13;4905553;23;20246;-79
2023/06/09 07:37:59;;;;;;;4.45;1.58;;;;;;;22.39;100.00;100087.41;4895624;29;20314;-79
2023/06/09 07:40:26;;;;;;;5.43;2.20;;;;;;;22.06;100.00;100055.59;4895857;29;20238;-79
2023/06/09 07:42:56;;;;;;;5.90;2.22;;;;;;;22.02;100.00;100024.34;4897393;29;20242;-79
2023/06/09 07:45:23;;;;;;;5.40;2.00;;;;;;;22.13;100.00;100023.94;4897129;29;20240;-80
2023/06/09 07:47:51;;;;;;;5.22;1.90;;;;;;;22.44;100.00;100035.06;4898390;29;20263;-79
2023/06/09 07:50:19;;;;;;;6.93;2.50;;;;;;;22.56;100.00;100001.28;4894407;29;20239;-78
2023/06/09 07:52:46;;;;;;;6.97;2.58;;;;;;;22.71;100.00;99999.66;4894383;29;20245;-79
2023/06/09 07:55:14;;;;;;;5.55;2.00;;;;;;;22.62;100.00;99982.13;4893628;29;20254;-78
2023/06/09 07:57:45;;;;;;;7.07;2.35;;;;;;;22.90;100.00;99992.47;4893981;29;20246;-79
2023/06/09 08:00:13;;;;;;;12.15;4.10;;;22.30;99.90;;;22.77;100.00;99957.13;4885825;29;20243;-78
2023/06/09 08:02:42;;;;;;;5.82;2.00;;;;;;;22.75;100.00;99915.00;4892985;29;20239;-78
2023/06/09 08:05:10;;;;;;;6.38;2.00;;;;;;;22.84;100.00;99914.59;4892710;28;20716;-78
2023/06/09 08:07:38;;;;;;;6.93;2.30;;;;;;;23.03;100.00;99898.34;4895578;29;20254;-78
2023/06/09 08:10:06;;;;;;;8.10;2.50;;;22.80;99.90;;;23.07;100.00;99898.13;4895313;29;20247;-79
2023/06/09 08:12:36;;;;;;;5.28;1.60;;;23.20;99.90;;;23.66;100.00;99921.19;4892820;29;20254;-78
2023/06/09 08:15:04;;;;;;;9.30;2.97;;;;;;;23.45;100.00;99853.00;4895618;29;20265;-78
2023/06/09 08:17:32;;;;;;;8.45;3.53;;;;;;;23.35;100.00;99821.16;4896886;29;20239;-78
2023/06/09 08:19:59;;;;;;;7.68;2.60;;;;;;;23.63;100.00;99820.63;4897020;29;20238;-78
2023/06/09 08:22:27;;;;;;;5.25;1.85;;;;;;;23.66;100.00;99788.94;4896214;29;20239;-78
2023/06/09 08:24:55;;;;;;;7.40;2.38;;;;;;;23.78;100.00;99772.03;4894528;29;20227;-78
2023/06/09 08:27:23;;;;;;;14.95;4.32;;;;;;;23.69;100.00;99734.75;4975692;23;20235;-79
2023/06/09 08:29:50;;;;;;;10.77;3.10;;;;;;;24.11;100.00;99760.28;4884192;29;20246;-79
2023/06/09 08:32:19;;;;;;;12.73;3.53;;;;;;;23.89;100.00;99667.00;4886346;29;20303;-79
2023/06/09 08:34:46;;;;;;;10.13;2.80;;;;;;;24.05;100.00;99688.59;4875268;29;20254;-80
2023/06/09 08:37:15;;;;;;;14.10;4.05;;;;;;;24.32;100.00;99674.44;4873811;29;20575;-80
2023/06/09 08:39:42;;;;;;;9.88;2.65;;;;;;;24.62;100.00;99631.19;4871438;29;20243;-79
2023/06/09 08:42:23;;;;;;;10.63;3.00;;;24.30;99.90;;;24.68;100.00;99639.78;4870311;29;20270;-77
2023/06/09 08:44:52;;;;;;;9.55;2.63;;;;;;;25.17;100.00;99637.66;4876895;29;20247;-78
2023/06/09 08:47:20;;;;;;;11.05;2.95;;;24.80;99.90;;;25.06;100.00;99577.94;4869520;29;20247;-79
2023/06/09 08:49:52;;;;;;;8.98;2.88;;;24.90;99.90;;;25.12;100.00;99522.56;4878011;29;20251;-79
2023/06/09 08:52:20;;;;;;;9.65;2.88;;;;;;;25.15;100.00;99503.44;4875908;29;20243;-80
2023/06/09 08:54:48;;;;;;;7.95;2.40;;;24.50;99.90;;;25.16;100.00;99519.56;4891465;29;20240;-79
2023/06/09 08:57:16;;;;;;;9.40;3.00;;;;;;;25.09;100.00;99472.25;4890399;29;20243;-77
2023/06/09 08:59:47;;;;;;;12.55;3.88;;;24.90;99.90;;;25.33;100.00;99442.69;4892028;29;20251;-78
2023/06/09 09:02:14;;;;;;;9.80;2.85;;;25.30;99.90;;;25.34;100.00;99424.59;4870050;29;20607;-78
2023/06/09 09:04:42;;;;;;;10.45;2.83;;;;;;;26.26;100.00;99466.06;4874946;29;20239;-78
2023/06/09 09:07:14;;;;;;;10.50;3.00;;;25.70;99.90;;;25.95;100.00;99405.00;4888520;29;20719;-78
2023/06/09 09:09:41;;;;;;;13.27;3.63;;;;;;;26.35;100.00;99437.47;4874370;29;20247;-78
2023/06/09 09:12:12;;;;;;;14.80;3.92;;;26.30;99.30;;;26.67;100.00;99370.91;4876678;29;20252;-78
2023/06/09 09:14:43;;;;;;;13.95;3.35;;;25.90;99.10;;;26.14;100.00;99288.94;4876960;29;20247;-79
2023/06/09 09:17:13;;;;;;;17.50;3.95;;;26.20;99.40;;;26.78;100.00;99321.28;4874012;29;20278;-78
2023/06/09 09:19:51;;;;;;;15.23;3.45;;;26.20;98.20;;;26.28;99.61;99206.63;4890760;29;20334;-78
2023/06/09 09:22:19;;;;;;;16.10;3.92;;;;;;;26.46;100.00;99224.25;4869531;29;20267;-78
2023/06/09 09:24:47;;;;;;;11.00;2.65;;;26.00;97.90;;;25.97;98.44;99118.63;4872025;29;20252;-79
2023/06/09 09:27:21;;;;;;;17.17;3.90;;;26.00;98.10;;;26.22;99.07;99149.31;4868478;29;20231;-78
2023/06/09 09:29:51;;;;;;;14.77;3.30;;;;;;;26.57;100.00;99201.75;4870770;29;20239;-81
2023/06/09 09:32:25;;;;;;;15.70;3.60;;;26.30;98.10;;;26.48;97.75;99137.38;4867347;29;20231;-79
2023/06/09 09:34:56;;;;;;;15.43;3.30;;;;;;;26.56;99.53;99147.63;4873751;29;20239;-79
2023/06/09 09:37:25;;;;;;;15.95;4.10;;;26.80;97.60;;;27.21;95.33;99172.34;4888103;29;20228;-78
2023/06/09 09:39:53;;;;;;;16.90;3.47;;;27.10;98.30;;;27.27;97.13;99171.84;4873406;29;20330;-79
2023/06/09 09:42:27;;;;;;;16.27;3.80;;;26.60;98.50;;;27.33;95.37;99136.09;4877224;29;20240;-82
2023/06/09 09:44:54;;;;;;;19.90;4.22;;;;;;;27.04;91.53;99015.44;4875513;29;20243;-80
2023/06/09 09:47:23;;;;;;;15.02;3.25;;;;;;;26.79;93.58;99003.84;4875525;29;20243;-79
2023/06/09 09:50:00;;;;;;;15.70;3.38;;;27.40;98.30;;;27.16;94.21;99030.72;4872601;29;20243;-81
2023/06/09 09:52:32;;;;;;;10.23;2.53;;;27.10;96.70;;;27.47;91.10;99011.94;4872185;29;20246;-80
2023/06/09 09:55:07;;;;;;;14.38;3.35;;;27.40;96.40;;;27.55;88.72;98977.75;4874333;29;20239;-81
2023/06/09 09:57:35;;;;;;;12.98;3.03;;;;;;;27.88;87.26;98989.47;4861101;29;20248;-81
2023/06/09 10:00:08;;;;;;;13.00;3.90;;;27.50;95.00;;;27.41;85.26;98880.31;4898044;29;20228;-81
2023/06/09 10:02:36;;;;;;;11.43;2.97;;;27.20;95.30;;;27.36;86.00;98863.53;4875611;29;20236;-81
2023/06/09 10:05:07;;;;;;;8.70;2.17;;;27.20;96.10;;;27.42;88.12;98890.16;4875111;29;20244;-81
2023/06/09 10:07:40;;;;;;;11.00;2.90;;;27.50;94.80;;;27.59;84.03;98850.72;4874081;29;20246;-81
2023/06/09 10:10:11;;;;;;;11.52;2.97;;;27.50;93.90;;;27.55;81.52;98778.66;4878579;29;20236;-81
2023/06/09 10:12:38;;;;;;;10.60;2.65;;;;;;;27.85;81.09;98816.75;4861497;29;20232;-81
2023/06/09 10:15:10;;;;;;;11.85;2.97;;;27.60;94.30;;;27.88;81.36;98785.72;4891109;29;20232;-81
2023/06/09 10:17:38;;;;;;;13.95;3.40;;;;;;;28.28;80.72;98821.13;4874838;29;20242;-81
2023/06/09 10:20:08;;;;;;;10.30;2.45;;;27.50;93.50;;;27.79;79.16;98722.22;4902754;29;20238;-81
2023/06/09 10:22:36;;;;;;;17.08;3.90;;;27.90;94.00;;;28.28;78.78;98781.22;4892295;29;20243;-80
2023/06/09 10:25:04;;;;;;;13.30;3.13;;;;;;;28.09;78.91;98736.78;4876205;29;20280;-81
2023/06/09 10:27:33;;;;;;;12.98;2.90;;;27.40;93.70;;;28.46;78.34;98766.94;4887007;29;20244;-81
2023/06/09 10:30:02;;;;;;;15.27;3.58;;;28.00;93.50;;;28.11;79.82;98722.03;4874318;29;20289;-80
2023/06/09 10:32:31;;;;;;;14.48;3.45;;;29.00;93.80;;;28.89;76.39;98766.63;4893804;29;20327;-81
2023/06/09 10:35:01;;;;;;;14.90;3.63;;;28.90;92.90;;;27.97;76.99;98621.91;4872537;29;20236;-81
2023/06/09 10:37:33;;;;;;;12.13;2.92;;;28.70;94.20;;;29.08;78.57;98785.69;4889725;29;20232;-80
2023/06/09 10:40:36;;;;;;;16.00;3.88;;;28.70;93.20;;;28.32;75.82;98626.84;4871216;29;20236;-79
2023/06/09 10:43:08;;;;;;;15.70;3.88;;;;;;;29.27;76.88;98760.31;4880674;29;20239;-81
2023/06/09 10:45:50;;;;;;;11.15;2.63;;;29.10;92.00;;;28.85;71.14;98591.94;4880114;29;20249;-80
2023/06/09 10:48:43;;;;;;;16.23;3.95;;;29.20;93.60;;;29.62;76.49;98760.56;4878053;29;20260;-83
2023/06/09 10:51:28;;;;;;;13.32;2.90;;;29.60;92.70;;;29.32;75.54;98684.50;4883005;29;20246;-84
2023/06/09 10:54:07;;;;;;;22.23;5.18;;;29.00;92.10;;;29.05;72.68;98597.34;4877253;29;20338;-82
2023/06/09 10:56:42;;;;;;;10.23;2.70;;;28.90;91.60;;;29.19;71.66;98588.69;4876139;29;20250;-82
2023/06/09 10:59:25;;;;;;;13.93;3.35;;;28.90;89.90;;;28.92;66.65;98467.91;4878542;29;20246;-86
2023/06/09 11:02:04;;;;;;;16.77;3.97;;;28.60;89.10;;;28.52;64.06;98363.94;4872163;29;20239;-84
2023/06/09 11:04:38;;;;;;;20.17;5.35;;;28.50;88.60;;;28.87;63.00;98399.50;4872154;29;20231;-85
2023/06/09 11:07:25;;;;;;;14.77;3.80;;;28.80;85.80;;;28.75;61.02;98316.34;4873023;29;20243;-82